sensor_id;sensor_type;location;lat;lon;timestamp;P1;durP1;ratioP1;P2;durP2;ratioP2
32082;SDS011;18597;48.328;7.932;2022-11-15T00:00:54;11.03;;;8.70;;
32082;SDS011;18597;48.328;7.932;2022-11-15T00:03:21;11.37;;;9.53;;
32082;SDS011;18597;48.328;7.932;2022-11-15T00:05:50;9.23;;;8.10;;
32082;SDS011;18597;48.328;7.932;2022-11-15T00:08:16;15.73;;;8.80;;
32082;SDS011;18597;48.328;7.932;2022-11-15T00:10:42;14.53;;;8.40;;
32082;SDS011;18597;48.328;7.932;2022-11-15T00:13:22;15.17;;;6.83;;
32082;SDS011;18597;48.328;7.932;2022-11-15T00:15:48;11.07;;;8.00;;
32082;SDS011;18597;48.328;7.932;2022-11-15T00:18:14;10.40;;;9.20;;
32082;SDS011;18597;48.328;7.932;2022-11-15T00:20:42;12.47;;;7.80;;
32082;SDS011;18597;48.328;7.932;2022-11-15T00:23:08;9.60;;;7.93;;
32082;SDS011;18597;48.328;7.932;2022-11-15T00:25:34;10.07;;;7.20;;
32082;SDS011;18597;48.328;7.932;2022-11-15T00:28:00;7.57;;;6.87;;
32082;SDS011;18597;48.328;7.932;2022-11-15T00:30:27;9.47;;;6.07;;
32082;SDS011;18597;48.328;7.932;2022-11-15T00:32:54;10.53;;;6.80;;
32082;SDS011;18597;48.328;7.932;2022-11-15T00:35:20;10.63;;;6.57;;
32082;SDS011;18597;48.328;7.932;2022-11-15T00:37:47;11.73;;;7.47;;
32082;SDS011;18597;48.328;7.932;2022-11-15T00:40:13;9.77;;;7.13;;
32082;SDS011;18597;48.328;7.932;2022-11-15T00:42:40;9.57;;;7.37;;
32082;SDS011;18597;48.328;7.932;2022-11-15T00:45:06;6.30;;;5.70;;
32082;SDS011;18597;48.328;7.932;2022-11-15T00:47:32;7.30;;;6.40;;
32082;SDS011;18597;48.328;7.932;2022-11-15T00:49:58;8.13;;;6.13;;
32082;SDS011;18597;48.328;7.932;2022-11-15T00:52:24;7.27;;;6.57;;
32082;SDS011;18597;48.328;7.932;2022-11-15T00:54:50;6.93;;;6.30;;
32082;SDS011;18597;48.328;7.932;2022-11-15T00:57:17;7.23;;;6.53;;
32082;SDS011;18597;48.328;7.932;2022-11-15T00:59:43;8.30;;;6.83;;
32082;SDS011;18597;48.328;7.932;2022-11-15T01:02:09;13.13;;;6.20;;
32082;SDS011;18597;48.328;7.932;2022-11-15T01:04:35;14.03;;;5.43;;
32082;SDS011;18597;48.328;7.932;2022-11-15T01:07:01;5.47;;;5.10;;
32082;SDS011;18597;48.328;7.932;2022-11-15T01:09:27;6.93;;;5.70;;
32082;SDS011;18597;48.328;7.932;2022-11-15T01:11:53;5.57;;;4.87;;
32082;SDS011;18597;48.328;7.932;2022-11-15T01:14:19;8.23;;;5.33;;
32082;SDS011;18597;48.328;7.932;2022-11-15T01:16:45;8.17;;;5.93;;
32082;SDS011;18597;48.328;7.932;2022-11-15T01:19:11;6.23;;;5.60;;
32082;SDS011;18597;48.328;7.932;2022-11-15T01:21:37;7.20;;;6.30;;
32082;SDS011;18597;48.328;7.932;2022-11-15T01:24:03;9.93;;;5.93;;
32082;SDS011;18597;48.328;7.932;2022-11-15T01:26:30;7.83;;;4.93;;
32082;SDS011;18597;48.328;7.932;2022-11-15T01:28:56;7.27;;;5.63;;
32082;SDS011;18597;48.328;7.932;2022-11-15T01:31:22;10.20;;;5.60;;
32082;SDS011;18597;48.328;7.932;2022-11-15T01:33:48;8.30;;;5.27;;
32082;SDS011;18597;48.328;7.932;2022-11-15T01:36:16;4.80;;;4.40;;
32082;SDS011;18597;48.328;7.932;2022-11-15T01:38:47;6.13;;;4.60;;
32082;SDS011;18597;48.328;7.932;2022-11-15T01:41:21;13.53;;;4.63;;
32082;SDS011;18597;48.328;7.932;2022-11-15T01:43:52;4.20;;;4.00;;
32082;SDS011;18597;48.328;7.932;2022-11-15T01:49:00;5.40;;;5.00;;
32082;SDS011;18597;48.328;7.932;2022-11-15T01:51:35;5.20;;;4.87;;
32082;SDS011;18597;48.328;7.932;2022-11-15T01:54:04;7.43;;;5.50;;
32082;SDS011;18597;48.328;7.932;2022-11-15T01:56:37;13.10;;;7.67;;
32082;SDS011;18597;48.328;7.932;2022-11-15T01:59:11;6.47;;;5.30;;
32082;SDS011;18597;48.328;7.932;2022-11-15T02:01:38;8.80;;;3.80;;
32082;SDS011;18597;48.328;7.932;2022-11-15T02:04:07;4.67;;;3.67;;
32082;SDS011;18597;48.328;7.932;2022-11-15T02:06:41;5.03;;;4.17;;
32082;SDS011;18597;48.328;7.932;2022-11-15T02:09:08;3.93;;;3.73;;
32082;SDS011;18597;48.328;7.932;2022-11-15T02:11:36;7.43;;;3.80;;
32082;SDS011;18597;48.328;7.932;2022-11-15T02:14:02;4.70;;;4.30;;
32082;SDS011;18597;48.328;7.932;2022-11-15T02:16:35;4.17;;;3.80;;
32082;SDS011;18597;48.328;7.932;2022-11-15T02:20:00;13.07;;;4.50;;
32082;SDS011;18597;48.328;7.932;2022-11-15T02:29:05;9.83;;;4.90;;
32082;SDS011;18597;48.328;7.932;2022-11-15T02:32:18;3.70;;;3.40;;
32082;SDS011;18597;48.328;7.932;2022-11-15T02:34:47;5.90;;;3.73;;
32082;SDS011;18597;48.328;7.932;2022-11-15T02:37:34;3.23;;;3.13;;
32082;SDS011;18597;48.328;7.932;2022-11-15T02:40:26;5.30;;;4.10;;
32082;SDS011;18597;48.328;7.932;2022-11-15T02:43:19;3.93;;;3.63;;
32082;SDS011;18597;48.328;7.932;2022-11-15T02:46:22;9.37;;;3.73;;
32082;SDS011;18597;48.328;7.932;2022-11-15T02:49:25;4.13;;;3.80;;
32082;SDS011;18597;48.328;7.932;2022-11-15T02:51:55;3.53;;;3.23;;
32082;SDS011;18597;48.328;7.932;2022-11-15T02:54:23;4.30;;;3.83;;
32082;SDS011;18597;48.328;7.932;2022-11-15T02:56:54;4.00;;;3.60;;
32082;SDS011;18597;48.328;7.932;2022-11-15T02:59:34;4.33;;;4.03;;
32082;SDS011;18597;48.328;7.932;2022-11-15T03:11:08;5.30;;;4.70;;
32082;SDS011;18597;48.328;7.932;2022-11-15T03:16:47;4.87;;;4.43;;
32082;SDS011;18597;48.328;7.932;2022-11-15T03:19:55;7.23;;;4.00;;
32082;SDS011;18597;48.328;7.932;2022-11-15T03:22:17;5.03;;;4.53;;
32082;SDS011;18597;48.328;7.932;2022-11-15T03:24:50;8.60;;;4.43;;
32082;SDS011;18597;48.328;7.932;2022-11-15T03:27:21;4.33;;;4.07;;
32082;SDS011;18597;48.328;7.932;2022-11-15T03:29:52;4.60;;;4.20;;
32082;SDS011;18597;48.328;7.932;2022-11-15T03:32:26;5.23;;;3.97;;
32082;SDS011;18597;48.328;7.932;2022-11-15T03:35:02;4.60;;;4.30;;
32082;SDS011;18597;48.328;7.932;2022-11-15T03:37:37;5.33;;;3.63;;
32082;SDS011;18597;48.328;7.932;2022-11-15T03:40:39;5.07;;;4.67;;
32082;SDS011;18597;48.328;7.932;2022-11-15T03:43:14;4.60;;;3.70;;
32082;SDS011;18597;48.328;7.932;2022-11-15T03:46:09;5.43;;;4.13;;
32082;SDS011;18597;48.328;7.932;2022-11-15T03:48:43;4.23;;;4.00;;
32082;SDS011;18597;48.328;7.932;2022-11-15T03:51:17;3.83;;;3.63;;
32082;SDS011;18597;48.328;7.932;2022-11-15T03:53:43;5.40;;;3.60;;
32082;SDS011;18597;48.328;7.932;2022-11-15T03:56:10;3.90;;;3.70;;
32082;SDS011;18597;48.328;7.932;2022-11-15T03:58:37;4.23;;;3.73;;
32082;SDS011;18597;48.328;7.932;2022-11-15T04:01:03;4.40;;;4.00;;
32082;SDS011;18597;48.328;7.932;2022-11-15T04:03:29;4.77;;;3.90;;
32082;SDS011;18597;48.328;7.932;2022-11-15T04:05:55;6.83;;;4.47;;
32082;SDS011;18597;48.328;7.932;2022-11-15T04:08:21;3.80;;;3.60;;
32082;SDS011;18597;48.328;7.932;2022-11-15T04:10:48;3.27;;;3.10;;
32082;SDS011;18597;48.328;7.932;2022-11-15T04:13:14;6.40;;;3.80;;
32082;SDS011;18597;48.328;7.932;2022-11-15T04:15:40;3.63;;;3.30;;
32082;SDS011;18597;48.328;7.932;2022-11-15T04:18:07;6.60;;;4.97;;
32082;SDS011;18597;48.328;7.932;2022-11-15T04:20:32;3.77;;;3.40;;
32082;SDS011;18597;48.328;7.932;2022-11-15T04:23:19;5.00;;;4.20;;
32082;SDS011;18597;48.328;7.932;2022-11-15T04:26:10;6.17;;;4.90;;
32082;SDS011;18597;48.328;7.932;2022-11-15T04:28:41;4.10;;;3.83;;
32082;SDS011;18597;48.328;7.932;2022-11-15T04:31:27;6.93;;;4.77;;
32082;SDS011;18597;48.328;7.932;2022-11-15T04:33:53;69.40;;;50.90;;
32082;SDS011;18597;48.328;7.932;2022-11-15T04:36:20;31.73;;;26.03;;
32082;SDS011;18597;48.328;7.932;2022-11-15T04:39:06;6.57;;;5.43;;
32082;SDS011;18597;48.328;7.932;2022-11-15T04:41:32;11.53;;;5.47;;
32082;SDS011;18597;48.328;7.932;2022-11-15T04:43:58;4.80;;;4.10;;
32082;SDS011;18597;48.328;7.932;2022-11-15T04:46:24;3.83;;;3.50;;
32082;SDS011;18597;48.328;7.932;2022-11-15T04:48:51;3.63;;;3.43;;
32082;SDS011;18597;48.328;7.932;2022-11-15T04:51:18;5.03;;;4.63;;
32082;SDS011;18597;48.328;7.932;2022-11-15T04:53:45;4.57;;;4.37;;
32082;SDS011;18597;48.328;7.932;2022-11-15T04:56:11;5.37;;;4.97;;
32082;SDS011;18597;48.328;7.932;2022-11-15T04:58:37;6.73;;;5.00;;
32082;SDS011;18597;48.328;7.932;2022-11-15T05:01:07;9.13;;;5.50;;
32082;SDS011;18597;48.328;7.932;2022-11-15T05:03:34;5.70;;;5.10;;
32082;SDS011;18597;48.328;7.932;2022-11-15T05:06:20;7.37;;;5.10;;
32082;SDS011;18597;48.328;7.932;2022-11-15T05:08:46;5.20;;;4.50;;
32082;SDS011;18597;48.328;7.932;2022-11-15T05:11:12;3.93;;;3.63;;
32082;SDS011;18597;48.328;7.932;2022-11-15T05:13:38;3.87;;;3.40;;
32082;SDS011;18597;48.328;7.932;2022-11-15T05:16:04;4.97;;;4.40;;
32082;SDS011;18597;48.328;7.932;2022-11-15T05:18:30;4.43;;;4.10;;
32082;SDS011;18597;48.328;7.932;2022-11-15T05:20:56;4.30;;;3.60;;
32082;SDS011;18597;48.328;7.932;2022-11-15T05:23:29;4.90;;;4.50;;
32082;SDS011;18597;48.328;7.932;2022-11-15T05:25:58;5.00;;;4.47;;
32082;SDS011;18597;48.328;7.932;2022-11-15T05:28:26;3.07;;;2.87;;
32082;SDS011;18597;48.328;7.932;2022-11-15T05:30:52;8.30;;;6.67;;
32082;SDS011;18597;48.328;7.932;2022-11-15T05:33:18;7.53;;;6.90;;
32082;SDS011;18597;48.328;7.932;2022-11-15T05:35:46;8.07;;;7.10;;
32082;SDS011;18597;48.328;7.932;2022-11-15T05:38:20;5.93;;;5.53;;
32082;SDS011;18597;48.328;7.932;2022-11-15T05:40:46;4.77;;;4.30;;
32082;SDS011;18597;48.328;7.932;2022-11-15T05:43:11;3.80;;;3.60;;
32082;SDS011;18597;48.328;7.932;2022-11-15T05:45:38;6.03;;;3.73;;
32082;SDS011;18597;48.328;7.932;2022-11-15T05:48:05;4.87;;;3.10;;
32082;SDS011;18597;48.328;7.932;2022-11-15T05:50:33;3.70;;;3.00;;
32082;SDS011;18597;48.328;7.932;2022-11-15T05:53:01;5.43;;;3.40;;
32082;SDS011;18597;48.328;7.932;2022-11-15T05:55:27;4.30;;;3.37;;
32082;SDS011;18597;48.328;7.932;2022-11-15T05:57:53;3.90;;;3.60;;
32082;SDS011;18597;48.328;7.932;2022-11-15T06:00:19;3.97;;;3.20;;
32082;SDS011;18597;48.328;7.932;2022-11-15T06:02:45;3.83;;;3.60;;
32082;SDS011;18597;48.328;7.932;2022-11-15T06:05:11;3.77;;;3.57;;
32082;SDS011;18597;48.328;7.932;2022-11-15T06:07:37;3.63;;;3.30;;
32082;SDS011;18597;48.328;7.932;2022-11-15T06:10:03;3.43;;;3.20;;
32082;SDS011;18597;48.328;7.932;2022-11-15T06:12:30;7.03;;;4.27;;
32082;SDS011;18597;48.328;7.932;2022-11-15T06:14:56;5.57;;;3.43;;
32082;SDS011;18597;48.328;7.932;2022-11-15T06:17:21;3.27;;;3.07;;
32082;SDS011;18597;48.328;7.932;2022-11-15T06:19:47;7.40;;;4.43;;
32082;SDS011;18597;48.328;7.932;2022-11-15T06:22:13;4.73;;;4.30;;
32082;SDS011;18597;48.328;7.932;2022-11-15T06:24:39;4.00;;;3.80;;
32082;SDS011;18597;48.328;7.932;2022-11-15T06:27:05;7.80;;;4.70;;
32082;SDS011;18597;48.328;7.932;2022-11-15T06:29:31;4.63;;;4.30;;
32082;SDS011;18597;48.328;7.932;2022-11-15T06:31:56;5.03;;;4.53;;
32082;SDS011;18597;48.328;7.932;2022-11-15T06:34:22;9.03;;;4.43;;
32082;SDS011;18597;48.328;7.932;2022-11-15T06:36:48;10.30;;;4.03;;
32082;SDS011;18597;48.328;7.932;2022-11-15T06:39:14;5.40;;;4.20;;
32082;SDS011;18597;48.328;7.932;2022-11-15T06:41:40;4.17;;;3.83;;
32082;SDS011;18597;48.328;7.932;2022-11-15T06:44:05;8.20;;;4.20;;
32082;SDS011;18597;48.328;7.932;2022-11-15T06:46:31;6.00;;;4.07;;
32082;SDS011;18597;48.328;7.932;2022-11-15T06:48:57;4.67;;;4.33;;
32082;SDS011;18597;48.328;7.932;2022-11-15T06:51:23;5.60;;;5.10;;
32082;SDS011;18597;48.328;7.932;2022-11-15T06:53:49;8.80;;;5.03;;
32082;SDS011;18597;48.328;7.932;2022-11-15T06:56:14;7.57;;;4.77;;
32082;SDS011;18597;48.328;7.932;2022-11-15T06:58:40;11.53;;;9.23;;
32082;SDS011;18597;48.328;7.932;2022-11-15T07:01:07;8.23;;;6.00;;
32082;SDS011;18597;48.328;7.932;2022-11-15T07:03:36;7.50;;;6.90;;
32082;SDS011;18597;48.328;7.932;2022-11-15T07:06:05;8.63;;;6.37;;
32082;SDS011;18597;48.328;7.932;2022-11-15T07:08:32;5.07;;;4.73;;
32082;SDS011;18597;48.328;7.932;2022-11-15T07:10:59;5.50;;;5.00;;
32082;SDS011;18597;48.328;7.932;2022-11-15T07:13:28;4.57;;;4.27;;
32082;SDS011;18597;48.328;7.932;2022-11-15T07:16:07;4.93;;;4.53;;
32082;SDS011;18597;48.328;7.932;2022-11-15T07:18:35;6.10;;;5.00;;
32082;SDS011;18597;48.328;7.932;2022-11-15T07:21:04;5.93;;;5.43;;
32082;SDS011;18597;48.328;7.932;2022-11-15T07:23:32;7.50;;;5.60;;
32082;SDS011;18597;48.328;7.932;2022-11-15T07:26:01;6.57;;;6.00;;
32082;SDS011;18597;48.328;7.932;2022-11-15T07:28:27;6.73;;;6.07;;
32082;SDS011;18597;48.328;7.932;2022-11-15T07:30:53;10.67;;;6.80;;
32082;SDS011;18597;48.328;7.932;2022-11-15T07:33:20;10.23;;;7.20;;
32082;SDS011;18597;48.328;7.932;2022-11-15T07:35:46;10.80;;;7.83;;
32082;SDS011;18597;48.328;7.932;2022-11-15T07:38:15;10.20;;;8.10;;
32082;SDS011;18597;48.328;7.932;2022-11-15T07:40:44;7.60;;;6.77;;
32082;SDS011;18597;48.328;7.932;2022-11-15T07:43:11;8.77;;;6.37;;
32082;SDS011;18597;48.328;7.932;2022-11-15T07:45:44;6.87;;;5.77;;
32082;SDS011;18597;48.328;7.932;2022-11-15T07:48:10;16.53;;;7.50;;
32082;SDS011;18597;48.328;7.932;2022-11-15T07:50:36;8.83;;;7.57;;
32082;SDS011;18597;48.328;7.932;2022-11-15T07:53:07;7.23;;;6.53;;
32082;SDS011;18597;48.328;7.932;2022-11-15T07:55:34;8.00;;;6.30;;
32082;SDS011;18597;48.328;7.932;2022-11-15T07:58:01;7.60;;;6.40;;
32082;SDS011;18597;48.328;7.932;2022-11-15T08:00:30;9.20;;;7.40;;
32082;SDS011;18597;48.328;7.932;2022-11-15T08:03:05;10.77;;;7.13;;
32082;SDS011;18597;48.328;7.932;2022-11-15T08:05:36;14.30;;;7.97;;
32082;SDS011;18597;48.328;7.932;2022-11-15T08:08:04;12.20;;;8.80;;
32082;SDS011;18597;48.328;7.932;2022-11-15T08:10:30;9.90;;;7.43;;
32082;SDS011;18597;48.328;7.932;2022-11-15T08:12:59;7.97;;;7.17;;
32082;SDS011;18597;48.328;7.932;2022-11-15T08:15:27;11.67;;;7.10;;
32082;SDS011;18597;48.328;7.932;2022-11-15T08:17:54;12.13;;;6.97;;
32082;SDS011;18597;48.328;7.932;2022-11-15T08:20:28;6.53;;;5.57;;
32082;SDS011;18597;48.328;7.932;2022-11-15T08:22:55;7.43;;;6.37;;
32082;SDS011;18597;48.328;7.932;2022-11-15T08:25:23;4.70;;;4.40;;
32082;SDS011;18597;48.328;7.932;2022-11-15T08:27:51;5.60;;;4.53;;
32082;SDS011;18597;48.328;7.932;2022-11-15T08:30:20;7.23;;;5.23;;
32082;SDS011;18597;48.328;7.932;2022-11-15T08:32:46;13.43;;;4.90;;
32082;SDS011;18597;48.328;7.932;2022-11-15T08:35:13;5.67;;;4.87;;
32082;SDS011;18597;48.328;7.932;2022-11-15T08:37:39;7.53;;;6.20;;
32082;SDS011;18597;48.328;7.932;2022-11-15T08:40:05;6.40;;;5.73;;
32082;SDS011;18597;48.328;7.932;2022-11-15T08:42:32;10.53;;;5.80;;
32082;SDS011;18597;48.328;7.932;2022-11-15T08:44:58;9.30;;;6.37;;
32082;SDS011;18597;48.328;7.932;2022-11-15T08:47:24;5.30;;;4.87;;
32082;SDS011;18597;48.328;7.932;2022-11-15T08:49:50;4.77;;;4.33;;
32082;SDS011;18597;48.328;7.932;2022-11-15T08:52:16;7.83;;;5.43;;
32082;SDS011;18597;48.328;7.932;2022-11-15T08:54:42;11.17;;;7.10;;
32082;SDS011;18597;48.328;7.932;2022-11-15T08:57:07;8.90;;;8.00;;
32082;SDS011;18597;48.328;7.932;2022-11-15T08:59:34;10.70;;;7.83;;
32082;SDS011;18597;48.328;7.932;2022-11-15T09:02:01;9.90;;;7.70;;
32082;SDS011;18597;48.328;7.932;2022-11-15T09:04:27;13.97;;;9.90;;
32082;SDS011;18597;48.328;7.932;2022-11-15T09:06:54;20.23;;;10.93;;
32082;SDS011;18597;48.328;7.932;2022-11-15T09:09:19;24.67;;;12.43;;
32082;SDS011;18597;48.328;7.932;2022-11-15T09:11:45;30.17;;;16.73;;
32082;SDS011;18597;48.328;7.932;2022-11-15T09:14:12;27.80;;;15.93;;
32082;SDS011;18597;48.328;7.932;2022-11-15T09:16:38;30.33;;;15.93;;
32082;SDS011;18597;48.328;7.932;2022-11-15T09:19:05;30.03;;;15.40;;
32082;SDS011;18597;48.328;7.932;2022-11-15T09:21:31;26.70;;;15.13;;
32082;SDS011;18597;48.328;7.932;2022-11-15T09:23:57;24.30;;;13.70;;
32082;SDS011;18597;48.328;7.932;2022-11-15T09:26:23;23.97;;;13.50;;
32082;SDS011;18597;48.328;7.932;2022-11-15T09:28:49;24.70;;;13.80;;
32082;SDS011;18597;48.328;7.932;2022-11-15T09:31:15;28.57;;;15.37;;
32082;SDS011;18597;48.328;7.932;2022-11-15T09:33:43;24.60;;;14.03;;
32082;SDS011;18597;48.328;7.932;2022-11-15T09:36:10;76.03;;;36.17;;
32082;SDS011;18597;48.328;7.932;2022-11-15T09:38:36;84.70;;;41.13;;
32082;SDS011;18597;48.328;7.932;2022-11-15T09:44:07;25.83;;;17.30;;
32082;SDS011;18597;48.328;7.932;2022-11-15T09:47:23;14.10;;;11.00;;
32082;SDS011;18597;48.328;7.932;2022-11-15T09:50:27;13.93;;;10.27;;
32082;SDS011;18597;48.328;7.932;2022-11-15T09:53:19;12.00;;;9.33;;
32082;SDS011;18597;48.328;7.932;2022-11-15T09:56:19;21.00;;;12.23;;
32082;SDS011;18597;48.328;7.932;2022-11-15T10:05:19;8.30;;;6.80;;
32082;SDS011;18597;48.328;7.932;2022-11-15T10:07:58;6.83;;;5.83;;
32082;SDS011;18597;48.328;7.932;2022-11-15T10:10:56;6.87;;;5.03;;
32082;SDS011;18597;48.328;7.932;2022-11-15T10:13:26;10.30;;;4.73;;
32082;SDS011;18597;48.328;7.932;2022-11-15T10:16:13;4.73;;;4.43;;
32082;SDS011;18597;48.328;7.932;2022-11-15T10:19:11;6.37;;;4.33;;
32082;SDS011;18597;48.328;7.932;2022-11-15T10:25:10;4.30;;;3.90;;
32082;SDS011;18597;48.328;7.932;2022-11-15T10:28:27;4.87;;;4.47;;
32082;SDS011;18597;48.328;7.932;2022-11-15T10:30:57;11.00;;;4.53;;
32082;SDS011;18597;48.328;7.932;2022-11-15T10:33:27;5.17;;;4.70;;
32082;SDS011;18597;48.328;7.932;2022-11-15T10:36:19;8.00;;;4.80;;
32082;SDS011;18597;48.328;7.932;2022-11-15T10:46:42;3.00;;;2.70;;
32082;SDS011;18597;48.328;7.932;2022-11-15T10:49:18;2.73;;;2.50;;
32082;SDS011;18597;48.328;7.932;2022-11-15T10:54:29;2.63;;;2.53;;
32082;SDS011;18597;48.328;7.932;2022-11-15T10:57:12;4.50;;;3.87;;
32082;SDS011;18597;48.328;7.932;2022-11-15T10:59:43;3.83;;;3.03;;
32082;SDS011;18597;48.328;7.932;2022-11-15T11:05:41;7.67;;;3.73;;
32082;SDS011;18597;48.328;7.932;2022-11-15T11:08:02;3.23;;;3.13;;
32082;SDS011;18597;48.328;7.932;2022-11-15T11:10:51;3.20;;;3.10;;
32082;SDS011;18597;48.328;7.932;2022-11-15T11:13:25;3.70;;;3.50;;
32082;SDS011;18597;48.328;7.932;2022-11-15T11:15:59;7.10;;;3.40;;
32082;SDS011;18597;48.328;7.932;2022-11-15T11:19:10;3.03;;;2.83;;
32082;SDS011;18597;48.328;7.932;2022-11-15T11:22:09;5.17;;;3.67;;
32082;SDS011;18597;48.328;7.932;2022-11-15T11:25:16;4.30;;;3.90;;
32082;SDS011;18597;48.328;7.932;2022-11-15T11:31:13;6.00;;;4.53;;
32082;SDS011;18597;48.328;7.932;2022-11-15T11:34:08;4.40;;;3.57;;
32082;SDS011;18597;48.328;7.932;2022-11-15T11:37:20;4.20;;;3.90;;
32082;SDS011;18597;48.328;7.932;2022-11-15T11:40:12;3.60;;;3.30;;
32082;SDS011;18597;48.328;7.932;2022-11-15T11:43:13;7.70;;;3.60;;
32082;SDS011;18597;48.328;7.932;2022-11-15T11:48:40;4.30;;;4.10;;
32082;SDS011;18597;48.328;7.932;2022-11-15T11:51:14;3.77;;;3.57;;
32082;SDS011;18597;48.328;7.932;2022-11-15T11:56:27;8.00;;;6.07;;
32082;SDS011;18597;48.328;7.932;2022-11-15T12:01:56;5.10;;;4.67;;
32082;SDS011;18597;48.328;7.932;2022-11-15T12:04:25;5.77;;;5.20;;
32082;SDS011;18597;48.328;7.932;2022-11-15T12:06:59;5.33;;;4.83;;
32082;SDS011;18597;48.328;7.932;2022-11-15T12:09:58;5.57;;;5.17;;
32082;SDS011;18597;48.328;7.932;2022-11-15T12:12:43;5.60;;;5.10;;
32082;SDS011;18597;48.328;7.932;2022-11-15T12:15:22;3.87;;;3.60;;
32082;SDS011;18597;48.328;7.932;2022-11-15T12:17:57;5.23;;;4.83;;
32082;SDS011;18597;48.328;7.932;2022-11-15T12:20:26;4.03;;;3.73;;
32082;SDS011;18597;48.328;7.932;2022-11-15T12:22:59;6.93;;;5.30;;
32082;SDS011;18597;48.328;7.932;2022-11-15T12:25:47;4.80;;;4.40;;
32082;SDS011;18597;48.328;7.932;2022-11-15T12:28:34;3.10;;;2.90;;
32082;SDS011;18597;48.328;7.932;2022-11-15T12:31:44;3.30;;;3.10;;
32082;SDS011;18597;48.328;7.932;2022-11-15T12:34:05;3.70;;;3.30;;
32082;SDS011;18597;48.328;7.932;2022-11-15T12:37:01;8.80;;;4.00;;
32082;SDS011;18597;48.328;7.932;2022-11-15T12:40:04;2.80;;;2.70;;
32082;SDS011;18597;48.328;7.932;2022-11-15T12:42:57;7.47;;;6.87;;
32082;SDS011;18597;48.328;7.932;2022-11-15T12:45:48;7.53;;;6.90;;
32082;SDS011;18597;48.328;7.932;2022-11-15T12:50:53;5.03;;;4.53;;
32082;SDS011;18597;48.328;7.932;2022-11-15T13:04:21;5.13;;;4.73;;
32082;SDS011;18597;48.328;7.932;2022-11-15T13:06:55;4.70;;;4.30;;
32082;SDS011;18597;48.328;7.932;2022-11-15T13:18:33;3.63;;;3.33;;
32082;SDS011;18597;48.328;7.932;2022-11-15T13:20:59;4.93;;;4.40;;
32082;SDS011;18597;48.328;7.932;2022-11-15T13:23:26;3.53;;;3.20;;
32082;SDS011;18597;48.328;7.932;2022-11-15T13:26:03;3.17;;;3.07;;
32082;SDS011;18597;48.328;7.932;2022-11-15T13:28:42;3.33;;;3.13;;
32082;SDS011;18597;48.328;7.932;2022-11-15T13:31:44;4.37;;;3.97;;
32082;SDS011;18597;48.328;7.932;2022-11-15T13:34:36;7.10;;;4.10;;
32082;SDS011;18597;48.328;7.932;2022-11-15T13:36:58;4.83;;;4.40;;
32082;SDS011;18597;48.328;7.932;2022-11-15T13:39:27;5.60;;;3.83;;
32082;SDS011;18597;48.328;7.932;2022-11-15T13:41:57;4.53;;;3.97;;
32082;SDS011;18597;48.328;7.932;2022-11-15T13:44:25;5.13;;;4.57;;
32082;SDS011;18597;48.328;7.932;2022-11-15T13:47:03;3.20;;;2.80;;
32082;SDS011;18597;48.328;7.932;2022-11-15T13:49:39;8.40;;;6.30;;
32082;SDS011;18597;48.328;7.932;2022-11-15T13:52:07;23.20;;;15.23;;
32082;SDS011;18597;48.328;7.932;2022-11-15T13:54:47;9.73;;;7.13;;
32082;SDS011;18597;48.328;7.932;2022-11-15T13:57:30;6.87;;;5.30;;
32082;SDS011;18597;48.328;7.932;2022-11-15T14:00:42;4.87;;;4.47;;
32082;SDS011;18597;48.328;7.932;2022-11-15T14:03:15;5.57;;;4.57;;
32082;SDS011;18597;48.328;7.932;2022-11-15T14:06:08;13.27;;;10.57;;
32082;SDS011;18597;48.328;7.932;2022-11-15T14:08:41;18.97;;;15.80;;
32082;SDS011;18597;48.328;7.932;2022-11-15T14:11:23;18.93;;;13.67;;
32082;SDS011;18597;48.328;7.932;2022-11-15T14:14:10;9.53;;;8.10;;
32082;SDS011;18597;48.328;7.932;2022-11-15T14:16:46;12.50;;;9.27;;
32082;SDS011;18597;48.328;7.932;2022-11-15T14:19:44;9.47;;;8.57;;
32082;SDS011;18597;48.328;7.932;2022-11-15T14:22:25;11.47;;;8.40;;
32082;SDS011;18597;48.328;7.932;2022-11-15T14:27:43;2.30;;;2.20;;
32082;SDS011;18597;48.328;7.932;2022-11-15T14:30:29;4.13;;;3.73;;
32082;SDS011;18597;48.328;7.932;2022-11-15T14:32:55;5.27;;;4.87;;
32082;SDS011;18597;48.328;7.932;2022-11-15T14:35:21;6.10;;;5.50;;
32082;SDS011;18597;48.328;7.932;2022-11-15T14:37:48;12.80;;;5.67;;
32082;SDS011;18597;48.328;7.932;2022-11-15T14:40:15;5.77;;;5.17;;
32082;SDS011;18597;48.328;7.932;2022-11-15T14:42:45;4.37;;;4.17;;
32082;SDS011;18597;48.328;7.932;2022-11-15T14:45:13;6.60;;;6.00;;
32082;SDS011;18597;48.328;7.932;2022-11-15T14:47:44;6.27;;;5.77;;
32082;SDS011;18597;48.328;7.932;2022-11-15T14:50:11;2.67;;;2.50;;
32082;SDS011;18597;48.328;7.932;2022-11-15T14:52:41;7.20;;;3.20;;
32082;SDS011;18597;48.328;7.932;2022-11-15T14:55:11;7.37;;;5.60;;
32082;SDS011;18597;48.328;7.932;2022-11-15T14:57:48;8.23;;;6.30;;
32082;SDS011;18597;48.328;7.932;2022-11-15T15:00:15;14.67;;;12.07;;
32082;SDS011;18597;48.328;7.932;2022-11-15T15:02:42;14.53;;;11.17;;
32082;SDS011;18597;48.328;7.932;2022-11-15T15:05:18;17.57;;;12.83;;
32082;SDS011;18597;48.328;7.932;2022-11-15T15:07:48;25.40;;;18.80;;
32082;SDS011;18597;48.328;7.932;2022-11-15T15:10:15;21.80;;;17.67;;
32082;SDS011;18597;48.328;7.932;2022-11-15T15:12:42;15.07;;;10.10;;
32082;SDS011;18597;48.328;7.932;2022-11-15T15:15:12;11.17;;;10.03;;
32082;SDS011;18597;48.328;7.932;2022-11-15T15:17:41;11.87;;;8.50;;
32082;SDS011;18597;48.328;7.932;2022-11-15T15:20:09;9.50;;;7.30;;
32082;SDS011;18597;48.328;7.932;2022-11-15T15:22:35;9.73;;;8.40;;
32082;SDS011;18597;48.328;7.932;2022-11-15T15:25:02;11.80;;;7.30;;
32082;SDS011;18597;48.328;7.932;2022-11-15T15:27:44;8.20;;;7.40;;
32082;SDS011;18597;48.328;7.932;2022-11-15T15:30:11;12.47;;;8.30;;
32082;SDS011;18597;48.328;7.932;2022-11-15T15:32:37;12.87;;;8.37;;
32082;SDS011;18597;48.328;7.932;2022-11-15T15:35:03;12.80;;;8.60;;
32082;SDS011;18597;48.328;7.932;2022-11-15T15:37:29;11.50;;;7.17;;
32082;SDS011;18597;48.328;7.932;2022-11-15T15:39:57;13.73;;;9.27;;
32082;SDS011;18597;48.328;7.932;2022-11-15T15:42:23;16.67;;;11.13;;
32082;SDS011;18597;48.328;7.932;2022-11-15T15:44:49;23.07;;;15.40;;
32082;SDS011;18597;48.328;7.932;2022-11-15T15:47:20;26.17;;;15.30;;
32082;SDS011;18597;48.328;7.932;2022-11-15T15:49:48;21.73;;;14.20;;
32082;SDS011;18597;48.328;7.932;2022-11-15T15:52:15;24.20;;;14.20;;
32082;SDS011;18597;48.328;7.932;2022-11-15T15:54:41;15.23;;;11.80;;
32082;SDS011;18597;48.328;7.932;2022-11-15T15:57:08;20.93;;;10.57;;
32082;SDS011;18597;48.328;7.932;2022-11-15T15:59:38;20.17;;;9.63;;
32082;SDS011;18597;48.328;7.932;2022-11-15T16:02:03;10.90;;;9.57;;
32082;SDS011;18597;48.328;7.932;2022-11-15T16:04:29;15.40;;;11.20;;
32082;SDS011;18597;48.328;7.932;2022-11-15T16:06:59;14.00;;;10.67;;
32082;SDS011;18597;48.328;7.932;2022-11-15T16:09:25;11.70;;;10.50;;
32082;SDS011;18597;48.328;7.932;2022-11-15T16:12:11;12.47;;;9.97;;
32082;SDS011;18597;48.328;7.932;2022-11-15T16:14:37;12.30;;;10.00;;
32082;SDS011;18597;48.328;7.932;2022-11-15T16:17:03;11.87;;;9.03;;
32082;SDS011;18597;48.328;7.932;2022-11-15T16:19:29;10.37;;;8.90;;
32082;SDS011;18597;48.328;7.932;2022-11-15T16:21:55;17.23;;;8.83;;
32082;SDS011;18597;48.328;7.932;2022-11-15T16:24:20;8.60;;;7.70;;
32082;SDS011;18597;48.328;7.932;2022-11-15T16:26:47;8.10;;;7.30;;
32082;SDS011;18597;48.328;7.932;2022-11-15T16:29:15;8.77;;;7.87;;
32082;SDS011;18597;48.328;7.932;2022-11-15T16:31:40;9.00;;;8.10;;
32082;SDS011;18597;48.328;7.932;2022-11-15T16:34:06;17.70;;;9.93;;
32082;SDS011;18597;48.328;7.932;2022-11-15T16:36:33;9.80;;;7.53;;
32082;SDS011;18597;48.328;7.932;2022-11-15T16:39:00;7.40;;;6.17;;